Roopville, Georgia
Current Conditions -  °F | °C
As of 6:55 PM on Sunday 21 Dec 2014 (Local Time) from KCTJ Reporting Station
Overcast Overcast  
Wind Chill:   Ceiling: 800
Heat Index:   Visibility: 10mi
Dew Point:   Wind: 6mph
Humidity: 100%   Direction: 130°SE
Pressure: 30.11"   Gusts: NA
Location:  33.46°N, 85.13°W
Report Text: KCTJ 212355Z AUTO 13005KT 10SM OVC008 08/08 A3011 RMK AO2
Loading
Personal Weather Stations






























Interactive Weather Map New forecast layout! Learn more

10-Day Weather Forecast

Advertisements
Track Severe Weather on mobile